sensor_id;sensor_type;location;lat;lon;timestamp;temperature;humidity
70807;DHT22;58882;52.170;5.386;2023-04-25T00:01:20;14.60;51.30
70807;DHT22;58882;52.170;5.386;2023-04-25T00:03:48;14.60;51.30
70807;DHT22;58882;52.170;5.386;2023-04-25T00:06:16;14.60;51.10
70807;DHT22;58882;52.170;5.386;2023-04-25T00:08:44;14.60;51.00
70807;DHT22;58882;52.170;5.386;2023-04-25T00:11:11;14.50;50.90
70807;DHT22;58882;52.170;5.386;2023-04-25T00:13:37;14.50;50.90
70807;DHT22;58882;52.170;5.386;2023-04-25T00:16:08;14.50;50.90
70807;DHT22;58882;52.170;5.386;2023-04-25T00:18:35;14.40;51.00
70807;DHT22;58882;52.170;5.386;2023-04-25T00:21:02;14.30;50.90
70807;DHT22;58882;52.170;5.386;2023-04-25T00:23:29;14.30;51.00
70807;DHT22;58882;52.170;5.386;2023-04-25T00:25:56;14.30;51.20
70807;DHT22;58882;52.170;5.386;2023-04-25T00:28:23;14.30;51.10
70807;DHT22;58882;52.170;5.386;2023-04-25T00:30:50;14.30;51.10
70807;DHT22;58882;52.170;5.386;2023-04-25T00:33:17;14.30;50.90
70807;DHT22;58882;52.170;5.386;2023-04-25T00:35:43;14.20;50.90
70807;DHT22;58882;52.170;5.386;2023-04-25T00:38:10;14.20;50.90
70807;DHT22;58882;52.170;5.386;2023-04-25T00:40:37;14.20;50.90
70807;DHT22;58882;52.170;5.386;2023-04-25T00:43:04;14.20;50.80
70807;DHT22;58882;52.170;5.386;2023-04-25T00:45:31;14.20;50.80
70807;DHT22;58882;52.170;5.386;2023-04-25T00:47:58;14.20;50.70
70807;DHT22;58882;52.170;5.386;2023-04-25T00:50:25;14.20;50.50
70807;DHT22;58882;52.170;5.386;2023-04-25T00:52:52;14.20;50.60
70807;DHT22;58882;52.170;5.386;2023-04-25T00:55:19;14.10;50.40
70807;DHT22;58882;52.170;5.386;2023-04-25T00:57:46;14.10;50.40
70807;DHT22;58882;52.170;5.386;2023-04-25T01:00:14;14.10;50.50
70807;DHT22;58882;52.170;5.386;2023-04-25T01:02:43;14.10;50.40
70807;DHT22;58882;52.170;5.386;2023-04-25T01:05:11;14.10;50.50
70807;DHT22;58882;52.170;5.386;2023-04-25T01:07:39;14.20;50.70
70807;DHT22;58882;52.170;5.386;2023-04-25T01:10:06;14.20;50.50
70807;DHT22;58882;52.170;5.386;2023-04-25T01:12:34;14.20;50.20
70807;DHT22;58882;52.170;5.386;2023-04-25T01:15:01;14.20;50.10
70807;DHT22;58882;52.170;5.386;2023-04-25T01:17:28;14.30;50.10
70807;DHT22;58882;52.170;5.386;2023-04-25T01:19:55;14.30;50.20
70807;DHT22;58882;52.170;5.386;2023-04-25T01:22:22;14.30;49.90
70807;DHT22;58882;52.170;5.386;2023-04-25T01:24:50;14.30;49.90
70807;DHT22;58882;52.170;5.386;2023-04-25T01:27:17;14.30;49.80
70807;DHT22;58882;52.170;5.386;2023-04-25T01:29:45;14.40;49.70
70807;DHT22;58882;52.170;5.386;2023-04-25T01:32:13;14.30;49.60
70807;DHT22;58882;52.170;5.386;2023-04-25T01:34:40;14.30;49.60
70807;DHT22;58882;52.170;5.386;2023-04-25T01:37:07;14.30;49.50
70807;DHT22;58882;52.170;5.386;2023-04-25T01:39:34;14.30;49.50
70807;DHT22;58882;52.170;5.386;2023-04-25T01:42:01;14.20;49.70
70807;DHT22;58882;52.170;5.386;2023-04-25T01:44:29;14.20;49.80
70807;DHT22;58882;52.170;5.386;2023-04-25T01:46:56;14.20;49.80
70807;DHT22;58882;52.170;5.386;2023-04-25T01:49:23;14.30;49.70
70807;DHT22;58882;52.170;5.386;2023-04-25T01:51:50;14.30;49.40
70807;DHT22;58882;52.170;5.386;2023-04-25T01:54:17;14.20;49.40
70807;DHT22;58882;52.170;5.386;2023-04-25T01:56:50;14.20;49.40
70807;DHT22;58882;52.170;5.386;2023-04-25T01:59:19;14.20;49.40
70807;DHT22;58882;52.170;5.386;2023-04-25T02:02:11;14.20;49.40
70807;DHT22;58882;52.170;5.386;2023-04-25T02:04:38;14.10;49.50
70807;DHT22;58882;52.170;5.386;2023-04-25T02:07:06;14.10;49.40
70807;DHT22;58882;52.170;5.386;2023-04-25T02:09:44;14.10;49.30
70807;DHT22;58882;52.170;5.386;2023-04-25T02:12:11;14.10;49.40
70807;DHT22;58882;52.170;5.386;2023-04-25T02:14:58;14.10;49.50
70807;DHT22;58882;52.170;5.386;2023-04-25T02:17:39;14.10;49.60
70807;DHT22;58882;52.170;5.386;2023-04-25T02:20:06;14.10;49.40
70807;DHT22;58882;52.170;5.386;2023-04-25T02:22:33;14.10;49.40
70807;DHT22;58882;52.170;5.386;2023-04-25T02:25:04;14.10;49.40
70807;DHT22;58882;52.170;5.386;2023-04-25T02:27:31;14.10;50.00
70807;DHT22;58882;52.170;5.386;2023-04-25T02:29:58;14.10;49.30
70807;DHT22;58882;52.170;5.386;2023-04-25T02:32:25;14.20;49.30
70807;DHT22;58882;52.170;5.386;2023-04-25T02:34:53;14.20;49.40
70807;DHT22;58882;52.170;5.386;2023-04-25T02:37:20;14.20;49.30
70807;DHT22;58882;52.170;5.386;2023-04-25T02:39:47;14.20;49.20
70807;DHT22;58882;52.170;5.386;2023-04-25T02:42:14;14.20;49.20
70807;DHT22;58882;52.170;5.386;2023-04-25T02:44:41;14.20;49.00
70807;DHT22;58882;52.170;5.386;2023-04-25T02:47:08;14.20;49.00
70807;DHT22;58882;52.170;5.386;2023-04-25T02:49:35;14.20;49.00
70807;DHT22;58882;52.170;5.386;2023-04-25T02:52:02;14.30;49.10
70807;DHT22;58882;52.170;5.386;2023-04-25T02:54:28;14.20;49.00
70807;DHT22;58882;52.170;5.386;2023-04-25T02:56:57;14.20;48.90
70807;DHT22;58882;52.170;5.386;2023-04-25T02:59:28;14.20;48.90
70807;DHT22;58882;52.170;5.386;2023-04-25T03:01:54;14.20;48.90
70807;DHT22;58882;52.170;5.386;2023-04-25T03:04:22;14.20;48.90
70807;DHT22;58882;52.170;5.386;2023-04-25T03:06:51;14.20;48.90
70807;DHT22;58882;52.170;5.386;2023-04-25T03:09:20;14.20;48.80
70807;DHT22;58882;52.170;5.386;2023-04-25T03:11:47;14.20;48.80
70807;DHT22;58882;52.170;5.386;2023-04-25T03:14:14;14.20;48.80
70807;DHT22;58882;52.170;5.386;2023-04-25T03:16:41;14.20;48.80
70807;DHT22;58882;52.170;5.386;2023-04-25T03:19:07;14.20;48.90
70807;DHT22;58882;52.170;5.386;2023-04-25T03:21:35;14.20;49.00
70807;DHT22;58882;52.170;5.386;2023-04-25T03:24:03;14.20;48.90
70807;DHT22;58882;52.170;5.386;2023-04-25T03:26:31;14.20;49.80
70807;DHT22;58882;52.170;5.386;2023-04-25T03:28:58;14.20;48.80
70807;DHT22;58882;52.170;5.386;2023-04-25T03:31:25;14.10;49.70
70807;DHT22;58882;52.170;5.386;2023-04-25T03:33:53;14.10;48.90
70807;DHT22;58882;52.170;5.386;2023-04-25T03:36:21;14.10;48.60
70807;DHT22;58882;52.170;5.386;2023-04-25T03:38:48;14.10;48.50
70807;DHT22;58882;52.170;5.386;2023-04-25T03:41:16;14.00;48.50
70807;DHT22;58882;52.170;5.386;2023-04-25T03:43:46;14.00;48.50
70807;DHT22;58882;52.170;5.386;2023-04-25T03:46:15;13.90;48.50
70807;DHT22;58882;52.170;5.386;2023-04-25T03:48:42;13.80;48.60
70807;DHT22;58882;52.170;5.386;2023-04-25T03:51:13;13.80;48.70
70807;DHT22;58882;52.170;5.386;2023-04-25T03:53:42;13.70;48.70
70807;DHT22;58882;52.170;5.386;2023-04-25T03:56:18;13.70;49.10
70807;DHT22;58882;52.170;5.386;2023-04-25T03:58:47;13.70;50.10
70807;DHT22;58882;52.170;5.386;2023-04-25T04:01:16;13.70;49.00
70807;DHT22;58882;52.170;5.386;2023-04-25T04:03:43;13.70;49.00
70807;DHT22;58882;52.170;5.386;2023-04-25T04:06:10;13.70;48.90
70807;DHT22;58882;52.170;5.386;2023-04-25T04:08:43;13.60;48.90
70807;DHT22;58882;52.170;5.386;2023-04-25T04:11:10;13.60;49.00
70807;DHT22;58882;52.170;5.386;2023-04-25T04:13:37;13.60;49.10
70807;DHT22;58882;52.170;5.386;2023-04-25T04:16:05;13.60;49.40
70807;DHT22;58882;52.170;5.386;2023-04-25T04:18:32;13.60;49.20
70807;DHT22;58882;52.170;5.386;2023-04-25T04:21:01;13.60;49.20
70807;DHT22;58882;52.170;5.386;2023-04-25T04:23:30;13.70;49.10
70807;DHT22;58882;52.170;5.386;2023-04-25T04:25:58;13.70;48.90
70807;DHT22;58882;52.170;5.386;2023-04-25T04:28:25;13.70;48.70
70807;DHT22;58882;52.170;5.386;2023-04-25T04:31:13;13.70;48.40
70807;DHT22;58882;52.170;5.386;2023-04-25T04:33:43;13.80;48.00
70807;DHT22;58882;52.170;5.386;2023-04-25T04:36:11;13.80;48.00
70807;DHT22;58882;52.170;5.386;2023-04-25T04:38:38;13.80;48.00
70807;DHT22;58882;52.170;5.386;2023-04-25T04:41:10;13.80;47.80
70807;DHT22;58882;52.170;5.386;2023-04-25T04:43:55;13.80;47.70
70807;DHT22;58882;52.170;5.386;2023-04-25T04:46:54;13.80;47.70
70807;DHT22;58882;52.170;5.386;2023-04-25T04:49:51;13.80;48.60
70807;DHT22;58882;52.170;5.386;2023-04-25T04:52:40;13.90;47.50
70807;DHT22;58882;52.170;5.386;2023-04-25T04:55:27;13.90;47.40
70807;DHT22;58882;52.170;5.386;2023-04-25T04:58:26;13.90;47.30
70807;DHT22;58882;52.170;5.386;2023-04-25T05:01:12;14.00;47.20
70807;DHT22;58882;52.170;5.386;2023-04-25T05:03:55;14.00;47.00
70807;DHT22;58882;52.170;5.386;2023-04-25T05:06:57;14.00;46.90
70807;DHT22;58882;52.170;5.386;2023-04-25T05:09:30;14.00;46.70
70807;DHT22;58882;52.170;5.386;2023-04-25T05:12:30;13.90;46.60
70807;DHT22;58882;52.170;5.386;2023-04-25T05:15:17;14.00;46.70
70807;DHT22;58882;52.170;5.386;2023-04-25T05:18:10;13.90;46.70
70807;DHT22;58882;52.170;5.386;2023-04-25T05:20:46;13.90;46.90
70807;DHT22;58882;52.170;5.386;2023-04-25T05:23:13;13.90;46.90
70807;DHT22;58882;52.170;5.386;2023-04-25T05:25:51;13.90;46.90
70807;DHT22;58882;52.170;5.386;2023-04-25T05:28:31;13.90;47.00
70807;DHT22;58882;52.170;5.386;2023-04-25T05:31:16;14.00;46.90
70807;DHT22;58882;52.170;5.386;2023-04-25T05:33:58;14.00;47.00
70807;DHT22;58882;52.170;5.386;2023-04-25T05:36:33;14.00;47.20
70807;DHT22;58882;52.170;5.386;2023-04-25T05:39:00;14.00;47.20
70807;DHT22;58882;52.170;5.386;2023-04-25T05:41:56;14.10;47.00
70807;DHT22;58882;52.170;5.386;2023-04-25T05:44:41;14.10;47.10
70807;DHT22;58882;52.170;5.386;2023-04-25T05:47:28;14.10;47.10
70807;DHT22;58882;52.170;5.386;2023-04-25T05:50:05;14.20;46.90
70807;DHT22;58882;52.170;5.386;2023-04-25T05:52:54;14.20;46.70
70807;DHT22;58882;52.170;5.386;2023-04-25T05:55:28;14.30;46.70
70807;DHT22;58882;52.170;5.386;2023-04-25T05:57:57;14.30;46.70
70807;DHT22;58882;52.170;5.386;2023-04-25T06:00:24;14.30;46.50
70807;DHT22;58882;52.170;5.386;2023-04-25T06:02:51;14.30;46.40
70807;DHT22;58882;52.170;5.386;2023-04-25T06:05:18;14.40;46.40
70807;DHT22;58882;52.170;5.386;2023-04-25T06:07:46;14.40;46.30
70807;DHT22;58882;52.170;5.386;2023-04-25T06:10:13;14.40;47.40
70807;DHT22;58882;52.170;5.386;2023-04-25T06:12:41;14.50;46.30
70807;DHT22;58882;52.170;5.386;2023-04-25T06:15:08;14.50;46.10
70807;DHT22;58882;52.170;5.386;2023-04-25T06:17:54;14.60;46.00
70807;DHT22;58882;52.170;5.386;2023-04-25T06:20:21;14.60;46.00
70807;DHT22;58882;52.170;5.386;2023-04-25T06:22:52;14.70;45.80
70807;DHT22;58882;52.170;5.386;2023-04-25T06:25:22;14.80;45.80
70807;DHT22;58882;52.170;5.386;2023-04-25T06:27:50;14.80;45.70
70807;DHT22;58882;52.170;5.386;2023-04-25T06:30:17;14.90;45.40
70807;DHT22;58882;52.170;5.386;2023-04-25T06:32:51;15.00;45.20
70807;DHT22;58882;52.170;5.386;2023-04-25T06:35:18;15.10;44.90
70807;DHT22;58882;52.170;5.386;2023-04-25T06:37:45;15.10;44.70
70807;DHT22;58882;52.170;5.386;2023-04-25T06:40:11;15.20;44.60
70807;DHT22;58882;52.170;5.386;2023-04-25T06:42:38;15.20;44.30
70807;DHT22;58882;52.170;5.386;2023-04-25T06:45:24;15.20;44.20
70807;DHT22;58882;52.170;5.386;2023-04-25T06:47:52;15.30;44.10
70807;DHT22;58882;52.170;5.386;2023-04-25T06:50:19;15.30;43.90
70807;DHT22;58882;52.170;5.386;2023-04-25T06:52:46;15.30;43.90
70807;DHT22;58882;52.170;5.386;2023-04-25T06:55:13;15.40;43.80
70807;DHT22;58882;52.170;5.386;2023-04-25T06:57:56;15.50;43.80
70807;DHT22;58882;52.170;5.386;2023-04-25T07:00:44;15.50;43.60
70807;DHT22;58882;52.170;5.386;2023-04-25T07:03:11;15.50;43.40
70807;DHT22;58882;52.170;5.386;2023-04-25T07:05:38;15.60;43.30
70807;DHT22;58882;52.170;5.386;2023-04-25T07:08:05;15.60;43.00
70807;DHT22;58882;52.170;5.386;2023-04-25T07:10:32;15.60;42.80
70807;DHT22;58882;52.170;5.386;2023-04-25T07:12:59;15.70;42.70
70807;DHT22;58882;52.170;5.386;2023-04-25T07:15:26;15.70;42.50
70807;DHT22;58882;52.170;5.386;2023-04-25T07:17:53;15.70;42.50
70807;DHT22;58882;52.170;5.386;2023-04-25T07:20:20;15.80;42.50
70807;DHT22;58882;52.170;5.386;2023-04-25T07:22:47;16.00;42.40
70807;DHT22;58882;52.170;5.386;2023-04-25T07:25:14;16.20;41.90
70807;DHT22;58882;52.170;5.386;2023-04-25T07:27:41;16.40;41.50
70807;DHT22;58882;52.170;5.386;2023-04-25T07:30:13;16.60;41.30
70807;DHT22;58882;52.170;5.386;2023-04-25T07:32:40;16.80;40.80
70807;DHT22;58882;52.170;5.386;2023-04-25T07:35:07;16.90;40.30
70807;DHT22;58882;52.170;5.386;2023-04-25T07:37:35;17.00;41.10
70807;DHT22;58882;52.170;5.386;2023-04-25T07:40:09;17.00;40.00
70807;DHT22;58882;52.170;5.386;2023-04-25T07:42:41;17.00;39.80
70807;DHT22;58882;52.170;5.386;2023-04-25T07:45:09;16.90;39.80
70807;DHT22;58882;52.170;5.386;2023-04-25T07:47:37;16.90;39.50
70807;DHT22;58882;52.170;5.386;2023-04-25T07:50:06;16.90;39.10
70807;DHT22;58882;52.170;5.386;2023-04-25T07:52:33;16.90;38.90
70807;DHT22;58882;52.170;5.386;2023-04-25T07:55:07;16.90;38.80
70807;DHT22;58882;52.170;5.386;2023-04-25T07:57:47;17.00;38.70
70807;DHT22;58882;52.170;5.386;2023-04-25T08:00:15;17.10;38.60
70807;DHT22;58882;52.170;5.386;2023-04-25T08:02:48;17.40;38.30
70807;DHT22;58882;52.170;5.386;2023-04-25T08:05:17;17.70;37.70
70807;DHT22;58882;52.170;5.386;2023-04-25T08:07:53;17.90;38.00
70807;DHT22;58882;52.170;5.386;2023-04-25T08:10:20;18.00;36.20
70807;DHT22;58882;52.170;5.386;2023-04-25T08:12:47;18.00;36.20
70807;DHT22;58882;52.170;5.386;2023-04-25T08:15:14;18.00;36.30
70807;DHT22;58882;52.170;5.386;2023-04-25T08:17:42;18.20;36.10
70807;DHT22;58882;52.170;5.386;2023-04-25T08:20:11;18.30;35.70
70807;DHT22;58882;52.170;5.386;2023-04-25T08:22:39;18.40;35.40
70807;DHT22;58882;52.170;5.386;2023-04-25T08:25:24;18.20;35.10
70807;DHT22;58882;52.170;5.386;2023-04-25T08:27:52;18.10;36.40
70807;DHT22;58882;52.170;5.386;2023-04-25T08:30:21;17.90;35.70
70807;DHT22;58882;52.170;5.386;2023-04-25T08:32:50;17.70;35.90
70807;DHT22;58882;52.170;5.386;2023-04-25T08:35:46;17.70;36.20
70807;DHT22;58882;52.170;5.386;2023-04-25T08:38:14;17.50;36.00
70807;DHT22;58882;52.170;5.386;2023-04-25T08:40:43;17.40;36.10
70807;DHT22;58882;52.170;5.386;2023-04-25T08:43:15;17.30;36.20
70807;DHT22;58882;52.170;5.386;2023-04-25T08:45:44;17.30;36.10
70807;DHT22;58882;52.170;5.386;2023-04-25T08:48:21;17.30;36.10
70807;DHT22;58882;52.170;5.386;2023-04-25T08:50:54;17.40;36.00
70807;DHT22;58882;52.170;5.386;2023-04-25T08:53:26;17.70;35.90
70807;DHT22;58882;52.170;5.386;2023-04-25T08:55:57;18.00;35.40
70807;DHT22;58882;52.170;5.386;2023-04-25T08:58:24;18.40;34.90
70807;DHT22;58882;52.170;5.386;2023-04-25T09:00:51;19.00;34.40
70807;DHT22;58882;52.170;5.386;2023-04-25T09:03:21;19.70;33.90
70807;DHT22;58882;52.170;5.386;2023-04-25T09:05:51;20.30;34.00
70807;DHT22;58882;52.170;5.386;2023-04-25T09:08:17;21.00;31.90
70807;DHT22;58882;52.170;5.386;2023-04-25T09:10:44;21.60;31.10
70807;DHT22;58882;52.170;5.386;2023-04-25T09:13:14;21.90;30.30
70807;DHT22;58882;52.170;5.386;2023-04-25T09:16:02;22.10;29.80
70807;DHT22;58882;52.170;5.386;2023-04-25T09:18:59;22.00;29.50
70807;DHT22;58882;52.170;5.386;2023-04-25T09:21:27;21.80;29.20
70807;DHT22;58882;52.170;5.386;2023-04-25T09:23:54;21.60;29.00
70807;DHT22;58882;52.170;5.386;2023-04-25T09:26:22;21.40;29.10
70807;DHT22;58882;52.170;5.386;2023-04-25T09:29:05;21.10;29.30
70807;DHT22;58882;52.170;5.386;2023-04-25T09:31:35;20.70;29.60
70807;DHT22;58882;52.170;5.386;2023-04-25T09:34:03;20.50;29.80
70807;DHT22;58882;52.170;5.386;2023-04-25T09:36:40;20.40;29.80
70807;DHT22;58882;52.170;5.386;2023-04-25T09:39:14;20.30;30.60
70807;DHT22;58882;52.170;5.386;2023-04-25T09:41:54;20.10;29.90
70807;DHT22;58882;52.170;5.386;2023-04-25T09:44:24;20.00;30.50
70807;DHT22;58882;52.170;5.386;2023-04-25T09:46:53;19.80;31.90
70807;DHT22;58882;52.170;5.386;2023-04-25T09:49:24;19.60;31.30
70807;DHT22;58882;52.170;5.386;2023-04-25T09:52:22;19.50;31.40
70807;DHT22;58882;52.170;5.386;2023-04-25T09:55:12;19.40;31.70
70807;DHT22;58882;52.170;5.386;2023-04-25T09:57:38;19.30;31.80
70807;DHT22;58882;52.170;5.386;2023-04-25T10:00:07;19.20;31.70
70807;DHT22;58882;52.170;5.386;2023-04-25T10:02:42;19.20;31.50
70807;DHT22;58882;52.170;5.386;2023-04-25T10:05:30;19.20;31.80
70807;DHT22;58882;52.170;5.386;2023-04-25T10:08:02;19.30;31.90
70807;DHT22;58882;52.170;5.386;2023-04-25T10:10:30;19.60;31.60
70807;DHT22;58882;52.170;5.386;2023-04-25T10:13:04;20.00;31.30
70807;DHT22;58882;52.170;5.386;2023-04-25T10:15:34;20.40;30.80
70807;DHT22;58882;52.170;5.386;2023-04-25T10:18:06;20.80;30.30
70807;DHT22;58882;52.170;5.386;2023-04-25T10:20:33;21.20;29.80
70807;DHT22;58882;52.170;5.386;2023-04-25T10:23:11;21.50;29.60
70807;DHT22;58882;52.170;5.386;2023-04-25T10:25:40;21.80;29.50
70807;DHT22;58882;52.170;5.386;2023-04-25T10:28:08;22.00;29.30
70807;DHT22;58882;52.170;5.386;2023-04-25T10:30:34;22.10;29.20
70807;DHT22;58882;52.170;5.386;2023-04-25T10:33:01;22.10;29.20
70807;DHT22;58882;52.170;5.386;2023-04-25T10:35:29;22.20;29.10
70807;DHT22;58882;52.170;5.386;2023-04-25T10:38:03;22.20;28.80
70807;DHT22;58882;52.170;5.386;2023-04-25T10:40:33;22.20;28.80
70807;DHT22;58882;52.170;5.386;2023-04-25T10:46:01;22.10;28.80
70807;DHT22;58882;52.170;5.386;2023-04-25T10:48:30;22.20;28.80
70807;DHT22;58882;52.170;5.386;2023-04-25T10:51:07;22.10;28.80
70807;DHT22;58882;52.170;5.386;2023-04-25T10:53:34;22.20;29.20
70807;DHT22;58882;52.170;5.386;2023-04-25T10:56:16;22.40;29.00
70807;DHT22;58882;52.170;5.386;2023-04-25T10:58:44;22.50;28.80
70807;DHT22;58882;52.170;5.386;2023-04-25T11:01:19;22.70;28.70
70807;DHT22;58882;52.170;5.386;2023-04-25T11:03:46;22.80;28.50
70807;DHT22;58882;52.170;5.386;2023-04-25T11:06:20;22.80;28.40
70807;DHT22;58882;52.170;5.386;2023-04-25T11:08:50;22.60;28.40
70807;DHT22;58882;52.170;5.386;2023-04-25T11:11:18;22.30;29.10
70807;DHT22;58882;52.170;5.386;2023-04-25T11:13:49;22.00;28.70
70807;DHT22;58882;52.170;5.386;2023-04-25T11:16:17;21.60;28.90
70807;DHT22;58882;52.170;5.386;2023-04-25T11:18:57;21.50;29.20
70807;DHT22;58882;52.170;5.386;2023-04-25T11:21:25;21.30;29.50
70807;DHT22;58882;52.170;5.386;2023-04-25T11:23:56;21.10;29.80
70807;DHT22;58882;52.170;5.386;2023-04-25T11:26:24;21.00;30.00
70807;DHT22;58882;52.170;5.386;2023-04-25T11:28:57;20.90;30.30
70807;DHT22;58882;52.170;5.386;2023-04-25T11:31:25;20.80;30.50
70807;DHT22;58882;52.170;5.386;2023-04-25T11:33:53;20.70;30.80
70807;DHT22;58882;52.170;5.386;2023-04-25T11:36:23;20.70;30.90
70807;DHT22;58882;52.170;5.386;2023-04-25T11:38:51;20.60;30.90
70807;DHT22;58882;52.170;5.386;2023-04-25T11:41:21;20.60;31.00
70807;DHT22;58882;52.170;5.386;2023-04-25T11:43:49;20.60;30.80
70807;DHT22;58882;52.170;5.386;2023-04-25T11:46:16;20.50;30.60
70807;DHT22;58882;52.170;5.386;2023-04-25T11:48:43;20.50;30.60
70807;DHT22;58882;52.170;5.386;2023-04-25T11:51:11;20.50;30.60
70807;DHT22;58882;52.170;5.386;2023-04-25T11:53:41;20.40;30.80
70807;DHT22;58882;52.170;5.386;2023-04-25T11:56:10;20.50;31.00
70807;DHT22;58882;52.170;5.386;2023-04-25T11:58:57;20.60;31.10
70807;DHT22;58882;52.170;5.386;2023-04-25T12:01:35;20.60;30.90
70807;DHT22;58882;52.170;5.386;2023-04-25T12:04:15;20.70;31.00
70807;DHT22;58882;52.170;5.386;2023-04-25T12:06:44;20.90;30.70
70807;DHT22;58882;52.170;5.386;2023-04-25T12:09:16;21.00;30.50
70807;DHT22;58882;52.170;5.386;2023-04-25T12:11:52;21.10;30.10
70807;DHT22;58882;52.170;5.386;2023-04-25T12:14:24;21.00;30.70
70807;DHT22;58882;52.170;5.386;2023-04-25T12:16:55;20.90;30.00
70807;DHT22;58882;52.170;5.386;2023-04-25T12:19:24;21.00;30.00
70807;DHT22;58882;52.170;5.386;2023-04-25T12:21:52;20.90;29.80
70807;DHT22;58882;52.170;5.386;2023-04-25T12:24:26;20.70;29.70
70807;DHT22;58882;52.170;5.386;2023-04-25T12:27:05;20.60;29.90
70807;DHT22;58882;52.170;5.386;2023-04-25T12:29:33;20.50;29.60
70807;DHT22;58882;52.170;5.386;2023-04-25T12:32:14;20.50;29.70
70807;DHT22;58882;52.170;5.386;2023-04-25T12:34:41;20.50;29.80
70807;DHT22;58882;52.170;5.386;2023-04-25T12:37:08;20.50;29.90
70807;DHT22;58882;52.170;5.386;2023-04-25T12:39:35;20.50;30.00
70807;DHT22;58882;52.170;5.386;2023-04-25T12:42:02;20.50;30.00
70807;DHT22;58882;52.170;5.386;2023-04-25T12:44:34;20.50;29.90
70807;DHT22;58882;52.170;5.386;2023-04-25T12:47:00;20.50;29.70
70807;DHT22;58882;52.170;5.386;2023-04-25T12:49:27;20.50;29.70
70807;DHT22;58882;52.170;5.386;2023-04-25T12:51:54;20.50;29.70
70807;DHT22;58882;52.170;5.386;2023-04-25T12:54:21;20.40;29.80
70807;DHT22;58882;52.170;5.386;2023-04-25T12:56:48;20.50;29.80
70807;DHT22;58882;52.170;5.386;2023-04-25T12:59:16;20.50;29.70
70807;DHT22;58882;52.170;5.386;2023-04-25T13:01:43;20.60;29.60
70807;DHT22;58882;52.170;5.386;2023-04-25T13:04:12;20.50;29.50
70807;DHT22;58882;52.170;5.386;2023-04-25T13:06:38;20.50;29.60
70807;DHT22;58882;52.170;5.386;2023-04-25T13:09:05;20.50;29.70
70807;DHT22;58882;52.170;5.386;2023-04-25T13:11:33;20.50;29.60
70807;DHT22;58882;52.170;5.386;2023-04-25T13:14:00;20.40;29.50
70807;DHT22;58882;52.170;5.386;2023-04-25T13:16:28;20.30;29.40
70807;DHT22;58882;52.170;5.386;2023-04-25T13:18:55;20.30;29.30
70807;DHT22;58882;52.170;5.386;2023-04-25T13:21:23;20.30;29.40
70807;DHT22;58882;52.170;5.386;2023-04-25T13:23:50;20.30;29.40
70807;DHT22;58882;52.170;5.386;2023-04-25T13:26:17;20.30;29.50
70807;DHT22;58882;52.170;5.386;2023-04-25T13:28:44;20.30;29.50
70807;DHT22;58882;52.170;5.386;2023-04-25T13:31:11;20.30;29.50
70807;DHT22;58882;52.170;5.386;2023-04-25T13:33:38;20.40;29.30
70807;DHT22;58882;52.170;5.386;2023-04-25T13:36:05;20.40;29.20
70807;DHT22;58882;52.170;5.386;2023-04-25T13:38:32;20.40;29.70
70807;DHT22;58882;52.170;5.386;2023-04-25T13:40:59;20.30;28.90
70807;DHT22;58882;52.170;5.386;2023-04-25T13:43:27;20.30;28.90
70807;DHT22;58882;52.170;5.386;2023-04-25T13:45:54;20.30;29.00
70807;DHT22;58882;52.170;5.386;2023-04-25T13:48:21;20.20;28.90
70807;DHT22;58882;52.170;5.386;2023-04-25T13:50:49;20.20;28.90
70807;DHT22;58882;52.170;5.386;2023-04-25T13:53:16;20.10;28.90
70807;DHT22;58882;52.170;5.386;2023-04-25T13:55:43;20.10;29.10
70807;DHT22;58882;52.170;5.386;2023-04-25T13:58:10;20.10;28.90
70807;DHT22;58882;52.170;5.386;2023-04-25T14:00:38;20.10;28.90
70807;DHT22;58882;52.170;5.386;2023-04-25T14:03:06;20.20;28.90
70807;DHT22;58882;52.170;5.386;2023-04-25T14:05:35;20.20;28.90
70807;DHT22;58882;52.170;5.386;2023-04-25T14:08:06;20.30;28.70
70807;DHT22;58882;52.170;5.386;2023-04-25T14:10:34;20.30;28.70
70807;DHT22;58882;52.170;5.386;2023-04-25T14:13:02;20.30;29.10
70807;DHT22;58882;52.170;5.386;2023-04-25T14:15:31;20.30;28.50
70807;DHT22;58882;52.170;5.386;2023-04-25T14:18:00;20.30;28.50
70807;DHT22;58882;52.170;5.386;2023-04-25T14:20:27;20.20;28.50
70807;DHT22;58882;52.170;5.386;2023-04-25T14:22:54;20.10;28.30
70807;DHT22;58882;52.170;5.386;2023-04-25T14:25:23;20.10;28.40
70807;DHT22;58882;52.170;5.386;2023-04-25T14:27:50;20.00;28.50
70807;DHT22;58882;52.170;5.386;2023-04-25T14:30:21;19.90;28.40
70807;DHT22;58882;52.170;5.386;2023-04-25T14:32:49;19.90;28.30
70807;DHT22;58882;52.170;5.386;2023-04-25T14:35:16;19.90;28.20
70807;DHT22;58882;52.170;5.386;2023-04-25T14:37:43;19.90;29.00
70807;DHT22;58882;52.170;5.386;2023-04-25T14:40:10;19.80;28.00
70807;DHT22;58882;52.170;5.386;2023-04-25T14:42:39;19.80;27.90
70807;DHT22;58882;52.170;5.386;2023-04-25T14:45:07;19.70;28.00
70807;DHT22;58882;52.170;5.386;2023-04-25T14:47:38;19.70;28.00
70807;DHT22;58882;52.170;5.386;2023-04-25T14:50:06;19.70;27.90
70807;DHT22;58882;52.170;5.386;2023-04-25T14:52:33;19.70;28.00
70807;DHT22;58882;52.170;5.386;2023-04-25T14:55:00;19.70;28.20
70807;DHT22;58882;52.170;5.386;2023-04-25T14:57:32;19.60;28.30
70807;DHT22;58882;52.170;5.386;2023-04-25T14:59:59;19.60;28.50
70807;DHT22;58882;52.170;5.386;2023-04-25T15:02:26;19.50;28.60
70807;DHT22;58882;52.170;5.386;2023-04-25T15:04:53;19.50;28.50
70807;DHT22;58882;52.170;5.386;2023-04-25T15:07:21;19.50;28.30
70807;DHT22;58882;52.170;5.386;2023-04-25T15:09:48;19.40;28.00
70807;DHT22;58882;52.170;5.386;2023-04-25T15:12:15;19.30;28.20
70807;DHT22;58882;52.170;5.386;2023-04-25T15:14:42;19.30;28.10
70807;DHT22;58882;52.170;5.386;2023-04-25T15:17:09;19.20;27.90
70807;DHT22;58882;52.170;5.386;2023-04-25T15:19:36;19.10;27.90
70807;DHT22;58882;52.170;5.386;2023-04-25T15:22:03;19.10;27.90
70807;DHT22;58882;52.170;5.386;2023-04-25T15:24:30;19.10;28.00
70807;DHT22;58882;52.170;5.386;2023-04-25T15:26:57;19.00;28.10
70807;DHT22;58882;52.170;5.386;2023-04-25T15:29:24;19.00;28.40
70807;DHT22;58882;52.170;5.386;2023-04-25T15:31:52;18.90;28.60
70807;DHT22;58882;52.170;5.386;2023-04-25T15:34:19;18.90;28.90
70807;DHT22;58882;52.170;5.386;2023-04-25T15:36:47;18.90;29.00
70807;DHT22;58882;52.170;5.386;2023-04-25T15:39:14;18.80;28.90
70807;DHT22;58882;52.170;5.386;2023-04-25T15:41:41;18.80;28.90
70807;DHT22;58882;52.170;5.386;2023-04-25T15:44:07;18.80;29.00
70807;DHT22;58882;52.170;5.386;2023-04-25T15:46:37;18.80;29.00
70807;DHT22;58882;52.170;5.386;2023-04-25T15:49:04;18.80;29.10
70807;DHT22;58882;52.170;5.386;2023-04-25T15:51:31;18.70;29.20
70807;DHT22;58882;52.170;5.386;2023-04-25T15:53:59;18.60;29.40